sensor_id;sensor_type;location;lat;lon;timestamp;temperature;humidity
19279;DHT22;9773;47.062;15.446;2023-05-16T00:00:41;12.70;99.90
19279;DHT22;9773;47.062;15.446;2023-05-16T00:03:08;12.70;99.90
19279;DHT22;9773;47.062;15.446;2023-05-16T00:05:36;12.70;99.90
19279;DHT22;9773;47.062;15.446;2023-05-16T00:08:02;12.70;99.90
19279;DHT22;9773;47.062;15.446;2023-05-16T00:10:28;12.70;99.90
19279;DHT22;9773;47.062;15.446;2023-05-16T00:12:54;12.70;99.90
19279;DHT22;9773;47.062;15.446;2023-05-16T00:15:20;12.70;99.90
19279;DHT22;9773;47.062;15.446;2023-05-16T00:17:47;12.70;99.90
19279;DHT22;9773;47.062;15.446;2023-05-16T00:20:14;12.70;99.90
19279;DHT22;9773;47.062;15.446;2023-05-16T00:22:42;12.60;99.90
19279;DHT22;9773;47.062;15.446;2023-05-16T00:25:08;12.60;99.90
19279;DHT22;9773;47.062;15.446;2023-05-16T00:27:35;12.60;99.90
19279;DHT22;9773;47.062;15.446;2023-05-16T00:30:04;12.60;99.90
19279;DHT22;9773;47.062;15.446;2023-05-16T00:32:31;12.50;99.90
19279;DHT22;9773;47.062;15.446;2023-05-16T00:34:56;12.50;99.90
19279;DHT22;9773;47.062;15.446;2023-05-16T00:37:22;12.50;99.90
19279;DHT22;9773;47.062;15.446;2023-05-16T00:39:48;12.50;99.90
19279;DHT22;9773;47.062;15.446;2023-05-16T00:42:14;12.50;99.90
19279;DHT22;9773;47.062;15.446;2023-05-16T00:44:39;12.50;99.90
19279;DHT22;9773;47.062;15.446;2023-05-16T00:47:06;12.60;99.90
19279;DHT22;9773;47.062;15.446;2023-05-16T00:49:32;12.60;99.90
19279;DHT22;9773;47.062;15.446;2023-05-16T00:51:58;12.50;99.90
19279;DHT22;9773;47.062;15.446;2023-05-16T00:54:25;12.50;99.90
19279;DHT22;9773;47.062;15.446;2023-05-16T00:56:54;12.50;99.90
19279;DHT22;9773;47.062;15.446;2023-05-16T00:59:21;12.40;99.90
19279;DHT22;9773;47.062;15.446;2023-05-16T01:01:47;12.50;99.90
19279;DHT22;9773;47.062;15.446;2023-05-16T01:04:13;12.40;99.90
19279;DHT22;9773;47.062;15.446;2023-05-16T01:06:40;12.50;99.90
19279;DHT22;9773;47.062;15.446;2023-05-16T01:09:06;12.50;99.90
19279;DHT22;9773;47.062;15.446;2023-05-16T01:17:25;12.40;99.90
19279;DHT22;9773;47.062;15.446;2023-05-16T01:20:21;12.40;99.90
19279;DHT22;9773;47.062;15.446;2023-05-16T01:23:06;12.40;99.90
19279;DHT22;9773;47.062;15.446;2023-05-16T01:28:15;12.40;99.90
19279;DHT22;9773;47.062;15.446;2023-05-16T01:30:42;12.40;99.90
19279;DHT22;9773;47.062;15.446;2023-05-16T01:33:08;12.40;99.90
19279;DHT22;9773;47.062;15.446;2023-05-16T01:38:29;12.50;99.90
19279;DHT22;9773;47.062;15.446;2023-05-16T01:41:17;12.50;99.90
19279;DHT22;9773;47.062;15.446;2023-05-16T01:43:55;12.50;99.90
19279;DHT22;9773;47.062;15.446;2023-05-16T01:46:25;12.50;99.90
19279;DHT22;9773;47.062;15.446;2023-05-16T01:51:53;12.40;99.90
19279;DHT22;9773;47.062;15.446;2023-05-16T01:54:20;12.40;99.90
19279;DHT22;9773;47.062;15.446;2023-05-16T01:56:51;12.40;99.90
19279;DHT22;9773;47.062;15.446;2023-05-16T01:59:19;12.40;99.90
19279;DHT22;9773;47.062;15.446;2023-05-16T02:01:46;12.30;99.90
19279;DHT22;9773;47.062;15.446;2023-05-16T02:04:12;12.30;99.90
19279;DHT22;9773;47.062;15.446;2023-05-16T02:06:40;12.30;99.90
19279;DHT22;9773;47.062;15.446;2023-05-16T02:09:06;12.30;99.90
19279;DHT22;9773;47.062;15.446;2023-05-16T02:11:32;12.20;99.90
19279;DHT22;9773;47.062;15.446;2023-05-16T02:13:58;12.20;99.90
19279;DHT22;9773;47.062;15.446;2023-05-16T02:16:24;12.20;99.90
19279;DHT22;9773;47.062;15.446;2023-05-16T02:18:50;12.20;99.90
19279;DHT22;9773;47.062;15.446;2023-05-16T02:21:16;12.20;99.90
19279;DHT22;9773;47.062;15.446;2023-05-16T02:23:42;12.20;99.90
19279;DHT22;9773;47.062;15.446;2023-05-16T02:26:08;12.20;99.90
19279;DHT22;9773;47.062;15.446;2023-05-16T02:28:34;12.20;99.90
19279;DHT22;9773;47.062;15.446;2023-05-16T02:31:00;12.20;99.90
19279;DHT22;9773;47.062;15.446;2023-05-16T02:33:27;12.20;99.90
19279;DHT22;9773;47.062;15.446;2023-05-16T02:35:53;12.30;99.90
19279;DHT22;9773;47.062;15.446;2023-05-16T02:38:20;12.30;99.90
19279;DHT22;9773;47.062;15.446;2023-05-16T02:40:48;12.40;99.90
19279;DHT22;9773;47.062;15.446;2023-05-16T02:43:14;12.30;99.90
19279;DHT22;9773;47.062;15.446;2023-05-16T02:45:40;12.30;99.90
19279;DHT22;9773;47.062;15.446;2023-05-16T02:48:06;12.20;99.90
19279;DHT22;9773;47.062;15.446;2023-05-16T02:50:32;12.20;99.90
19279;DHT22;9773;47.062;15.446;2023-05-16T02:52:59;12.20;99.90
19279;DHT22;9773;47.062;15.446;2023-05-16T02:55:27;12.20;99.90
19279;DHT22;9773;47.062;15.446;2023-05-16T02:57:53;12.20;99.90
19279;DHT22;9773;47.062;15.446;2023-05-16T03:00:19;12.20;99.90
19279;DHT22;9773;47.062;15.446;2023-05-16T03:02:45;12.20;99.90
19279;DHT22;9773;47.062;15.446;2023-05-16T03:05:11;12.30;99.90
19279;DHT22;9773;47.062;15.446;2023-05-16T03:07:37;12.30;99.90
19279;DHT22;9773;47.062;15.446;2023-05-16T03:10:04;12.30;99.90
19279;DHT22;9773;47.062;15.446;2023-05-16T03:12:31;12.40;99.90
19279;DHT22;9773;47.062;15.446;2023-05-16T03:14:57;12.30;99.90
19279;DHT22;9773;47.062;15.446;2023-05-16T03:17:22;12.40;99.90
19279;DHT22;9773;47.062;15.446;2023-05-16T03:19:48;12.30;99.90
19279;DHT22;9773;47.062;15.446;2023-05-16T03:22:14;12.40;99.90
19279;DHT22;9773;47.062;15.446;2023-05-16T03:24:40;12.50;99.90
19279;DHT22;9773;47.062;15.446;2023-05-16T03:27:06;12.50;99.90
19279;DHT22;9773;47.062;15.446;2023-05-16T03:29:32;12.50;99.90
19279;DHT22;9773;47.062;15.446;2023-05-16T03:31:58;12.50;99.90
19279;DHT22;9773;47.062;15.446;2023-05-16T03:34:24;12.50;99.90
19279;DHT22;9773;47.062;15.446;2023-05-16T03:36:49;12.60;99.90
19279;DHT22;9773;47.062;15.446;2023-05-16T03:39:16;12.60;99.90
19279;DHT22;9773;47.062;15.446;2023-05-16T03:41:42;12.60;99.90
19279;DHT22;9773;47.062;15.446;2023-05-16T03:44:07;12.60;99.90
19279;DHT22;9773;47.062;15.446;2023-05-16T03:46:34;12.60;99.90
19279;DHT22;9773;47.062;15.446;2023-05-16T03:49:00;12.60;99.90
19279;DHT22;9773;47.062;15.446;2023-05-16T03:51:26;12.50;99.90
19279;DHT22;9773;47.062;15.446;2023-05-16T03:53:53;12.60;99.90
19279;DHT22;9773;47.062;15.446;2023-05-16T03:56:18;12.50;99.90
19279;DHT22;9773;47.062;15.446;2023-05-16T03:58:46;12.60;99.90
19279;DHT22;9773;47.062;15.446;2023-05-16T04:01:12;12.60;99.90
19279;DHT22;9773;47.062;15.446;2023-05-16T04:03:38;12.60;99.90
19279;DHT22;9773;47.062;15.446;2023-05-16T04:06:05;12.50;99.90
19279;DHT22;9773;47.062;15.446;2023-05-16T04:08:31;12.50;99.90
19279;DHT22;9773;47.062;15.446;2023-05-16T04:10:57;12.50;99.90
19279;DHT22;9773;47.062;15.446;2023-05-16T04:13:22;12.50;99.90
19279;DHT22;9773;47.062;15.446;2023-05-16T04:15:48;12.60;99.90
19279;DHT22;9773;47.062;15.446;2023-05-16T04:18:14;12.50;99.90
19279;DHT22;9773;47.062;15.446;2023-05-16T04:20:43;12.50;99.90
19279;DHT22;9773;47.062;15.446;2023-05-16T04:23:09;12.50;99.90
19279;DHT22;9773;47.062;15.446;2023-05-16T04:25:37;12.60;99.90
19279;DHT22;9773;47.062;15.446;2023-05-16T04:28:03;12.60;99.90
19279;DHT22;9773;47.062;15.446;2023-05-16T04:30:30;12.60;99.90
19279;DHT22;9773;47.062;15.446;2023-05-16T04:32:56;12.70;99.90
19279;DHT22;9773;47.062;15.446;2023-05-16T04:35:24;12.70;99.90
19279;DHT22;9773;47.062;15.446;2023-05-16T04:37:50;12.80;99.90
19279;DHT22;9773;47.062;15.446;2023-05-16T04:40:15;12.70;99.90
19279;DHT22;9773;47.062;15.446;2023-05-16T04:42:41;12.70;99.90
19279;DHT22;9773;47.062;15.446;2023-05-16T04:45:07;12.70;99.90
19279;DHT22;9773;47.062;15.446;2023-05-16T04:47:35;12.80;99.90
19279;DHT22;9773;47.062;15.446;2023-05-16T04:50:02;12.70;99.90
19279;DHT22;9773;47.062;15.446;2023-05-16T04:52:29;12.70;99.90
19279;DHT22;9773;47.062;15.446;2023-05-16T04:54:55;12.80;99.90
19279;DHT22;9773;47.062;15.446;2023-05-16T04:57:21;12.70;99.90
19279;DHT22;9773;47.062;15.446;2023-05-16T04:59:47;12.70;99.90
19279;DHT22;9773;47.062;15.446;2023-05-16T05:02:12;12.70;99.90
19279;DHT22;9773;47.062;15.446;2023-05-16T05:04:38;12.60;99.90
19279;DHT22;9773;47.062;15.446;2023-05-16T05:07:04;12.50;99.90
19279;DHT22;9773;47.062;15.446;2023-05-16T05:09:29;12.50;99.90
19279;DHT22;9773;47.062;15.446;2023-05-16T05:11:55;12.40;99.90
19279;DHT22;9773;47.062;15.446;2023-05-16T05:14:21;12.30;99.90
19279;DHT22;9773;47.062;15.446;2023-05-16T05:16:46;12.30;99.90
19279;DHT22;9773;47.062;15.446;2023-05-16T05:19:12;12.30;99.90
19279;DHT22;9773;47.062;15.446;2023-05-16T05:21:38;12.30;99.90
19279;DHT22;9773;47.062;15.446;2023-05-16T05:24:04;12.40;99.90
19279;DHT22;9773;47.062;15.446;2023-05-16T05:26:30;12.30;99.90
19279;DHT22;9773;47.062;15.446;2023-05-16T05:28:56;12.30;99.90
19279;DHT22;9773;47.062;15.446;2023-05-16T05:31:21;12.20;99.90
19279;DHT22;9773;47.062;15.446;2023-05-16T05:33:47;12.20;99.90
19279;DHT22;9773;47.062;15.446;2023-05-16T05:36:13;12.20;99.90
19279;DHT22;9773;47.062;15.446;2023-05-16T05:38:38;12.30;99.90
19279;DHT22;9773;47.062;15.446;2023-05-16T05:41:04;12.30;99.90
19279;DHT22;9773;47.062;15.446;2023-05-16T05:43:31;12.30;99.90
19279;DHT22;9773;47.062;15.446;2023-05-16T05:45:57;12.20;99.90
19279;DHT22;9773;47.062;15.446;2023-05-16T05:48:23;12.20;99.90
19279;DHT22;9773;47.062;15.446;2023-05-16T05:50:48;12.20;99.90
19279;DHT22;9773;47.062;15.446;2023-05-16T05:53:14;12.20;99.90
19279;DHT22;9773;47.062;15.446;2023-05-16T05:55:40;12.20;99.90
19279;DHT22;9773;47.062;15.446;2023-05-16T05:58:06;12.10;99.90
19279;DHT22;9773;47.062;15.446;2023-05-16T06:00:32;12.10;99.90
19279;DHT22;9773;47.062;15.446;2023-05-16T06:02:58;12.10;99.90
19279;DHT22;9773;47.062;15.446;2023-05-16T06:05:24;12.00;99.90
19279;DHT22;9773;47.062;15.446;2023-05-16T06:07:49;12.10;99.90
19279;DHT22;9773;47.062;15.446;2023-05-16T06:10:15;12.10;99.90
19279;DHT22;9773;47.062;15.446;2023-05-16T06:12:41;12.20;99.90
19279;DHT22;9773;47.062;15.446;2023-05-16T06:15:07;12.30;99.90
19279;DHT22;9773;47.062;15.446;2023-05-16T06:17:33;12.30;99.90
19279;DHT22;9773;47.062;15.446;2023-05-16T06:19:59;12.50;99.90
19279;DHT22;9773;47.062;15.446;2023-05-16T06:22:25;12.40;99.90
19279;DHT22;9773;47.062;15.446;2023-05-16T06:24:50;12.50;99.90
19279;DHT22;9773;47.062;15.446;2023-05-16T06:27:16;12.40;99.90
19279;DHT22;9773;47.062;15.446;2023-05-16T06:29:42;12.40;99.90
19279;DHT22;9773;47.062;15.446;2023-05-16T06:32:07;12.40;99.90
19279;DHT22;9773;47.062;15.446;2023-05-16T06:34:33;12.40;99.90
19279;DHT22;9773;47.062;15.446;2023-05-16T06:36:59;12.40;99.90
19279;DHT22;9773;47.062;15.446;2023-05-16T06:39:28;12.40;99.90
19279;DHT22;9773;47.062;15.446;2023-05-16T06:41:53;12.40;99.90
19279;DHT22;9773;47.062;15.446;2023-05-16T06:44:21;12.40;99.90
19279;DHT22;9773;47.062;15.446;2023-05-16T06:46:47;12.40;99.90
19279;DHT22;9773;47.062;15.446;2023-05-16T06:49:13;12.30;99.90
19279;DHT22;9773;47.062;15.446;2023-05-16T06:51:39;12.30;99.90
19279;DHT22;9773;47.062;15.446;2023-05-16T06:54:05;12.30;99.90
19279;DHT22;9773;47.062;15.446;2023-05-16T06:56:31;12.40;99.90
19279;DHT22;9773;47.062;15.446;2023-05-16T06:58:56;12.40;99.90
19279;DHT22;9773;47.062;15.446;2023-05-16T07:01:22;12.40;99.90
19279;DHT22;9773;47.062;15.446;2023-05-16T07:03:48;12.40;99.90
19279;DHT22;9773;47.062;15.446;2023-05-16T07:06:14;12.40;99.90
19279;DHT22;9773;47.062;15.446;2023-05-16T07:08:39;12.30;99.90
19279;DHT22;9773;47.062;15.446;2023-05-16T07:11:05;12.40;99.90
19279;DHT22;9773;47.062;15.446;2023-05-16T07:13:31;12.50;99.90
19279;DHT22;9773;47.062;15.446;2023-05-16T07:15:57;12.50;99.90
19279;DHT22;9773;47.062;15.446;2023-05-16T07:18:22;12.50;99.90
19279;DHT22;9773;47.062;15.446;2023-05-16T07:20:48;12.50;99.90
19279;DHT22;9773;47.062;15.446;2023-05-16T07:23:14;12.40;99.90
19279;DHT22;9773;47.062;15.446;2023-05-16T07:25:39;12.40;99.90
19279;DHT22;9773;47.062;15.446;2023-05-16T07:28:05;12.40;99.90
19279;DHT22;9773;47.062;15.446;2023-05-16T07:30:31;12.40;99.90
19279;DHT22;9773;47.062;15.446;2023-05-16T07:32:57;12.40;99.90
19279;DHT22;9773;47.062;15.446;2023-05-16T07:35:23;12.30;99.90
19279;DHT22;9773;47.062;15.446;2023-05-16T07:37:51;12.30;99.90
19279;DHT22;9773;47.062;15.446;2023-05-16T07:40:16;12.30;99.90
19279;DHT22;9773;47.062;15.446;2023-05-16T07:42:43;12.20;99.90
19279;DHT22;9773;47.062;15.446;2023-05-16T07:45:09;12.00;99.90
19279;DHT22;9773;47.062;15.446;2023-05-16T07:47:34;11.90;99.90
19279;DHT22;9773;47.062;15.446;2023-05-16T07:50:00;11.90;99.90
19279;DHT22;9773;47.062;15.446;2023-05-16T07:52:26;11.90;99.90
19279;DHT22;9773;47.062;15.446;2023-05-16T07:54:52;11.90;99.90
19279;DHT22;9773;47.062;15.446;2023-05-16T07:57:18;11.80;99.90
19279;DHT22;9773;47.062;15.446;2023-05-16T07:59:44;11.70;99.90
19279;DHT22;9773;47.062;15.446;2023-05-16T08:02:10;11.80;99.90
19279;DHT22;9773;47.062;15.446;2023-05-16T08:04:36;11.80;99.90
19279;DHT22;9773;47.062;15.446;2023-05-16T08:07:02;11.00;99.90
19279;DHT22;9773;47.062;15.446;2023-05-16T08:09:28;11.80;99.90
19279;DHT22;9773;47.062;15.446;2023-05-16T08:11:54;11.90;99.90
19279;DHT22;9773;47.062;15.446;2023-05-16T08:14:19;11.90;99.90
19279;DHT22;9773;47.062;15.446;2023-05-16T08:16:45;12.00;99.90
19279;DHT22;9773;47.062;15.446;2023-05-16T08:19:11;12.00;99.90
19279;DHT22;9773;47.062;15.446;2023-05-16T08:21:37;12.10;99.90
19279;DHT22;9773;47.062;15.446;2023-05-16T08:24:03;12.10;99.90
19279;DHT22;9773;47.062;15.446;2023-05-16T08:26:30;12.00;99.90
19279;DHT22;9773;47.062;15.446;2023-05-16T08:28:56;12.10;99.90
19279;DHT22;9773;47.062;15.446;2023-05-16T08:31:22;12.20;99.90
19279;DHT22;9773;47.062;15.446;2023-05-16T08:33:48;12.20;99.90
19279;DHT22;9773;47.062;15.446;2023-05-16T08:36:13;12.40;99.90
19279;DHT22;9773;47.062;15.446;2023-05-16T08:38:40;12.40;99.90
19279;DHT22;9773;47.062;15.446;2023-05-16T08:41:06;12.50;99.90
19279;DHT22;9773;47.062;15.446;2023-05-16T08:43:32;12.50;99.90
19279;DHT22;9773;47.062;15.446;2023-05-16T08:45:59;12.50;99.90
19279;DHT22;9773;47.062;15.446;2023-05-16T08:48:27;12.60;99.90
19279;DHT22;9773;47.062;15.446;2023-05-16T08:50:53;12.70;99.90
19279;DHT22;9773;47.062;15.446;2023-05-16T08:53:21;12.70;99.90
19279;DHT22;9773;47.062;15.446;2023-05-16T08:55:52;12.70;99.90
19279;DHT22;9773;47.062;15.446;2023-05-16T08:58:18;12.60;99.90
19279;DHT22;9773;47.062;15.446;2023-05-16T09:00:45;12.60;99.90
19279;DHT22;9773;47.062;15.446;2023-05-16T09:03:11;12.70;99.90
19279;DHT22;9773;47.062;15.446;2023-05-16T09:05:37;12.80;99.90
19279;DHT22;9773;47.062;15.446;2023-05-16T09:08:03;12.80;99.90
19279;DHT22;9773;47.062;15.446;2023-05-16T09:10:29;12.70;99.90
19279;DHT22;9773;47.062;15.446;2023-05-16T09:12:54;12.80;99.90
19279;DHT22;9773;47.062;15.446;2023-05-16T09:15:20;12.90;99.90
19279;DHT22;9773;47.062;15.446;2023-05-16T09:17:46;12.80;99.90
19279;DHT22;9773;47.062;15.446;2023-05-16T09:20:17;12.70;99.90
19279;DHT22;9773;47.062;15.446;2023-05-16T09:25:17;12.70;99.90
19279;DHT22;9773;47.062;15.446;2023-05-16T09:27:45;12.60;99.90
19279;DHT22;9773;47.062;15.446;2023-05-16T09:30:17;12.70;99.90
19279;DHT22;9773;47.062;15.446;2023-05-16T09:32:45;12.70;99.90
19279;DHT22;9773;47.062;15.446;2023-05-16T09:35:15;12.60;99.90
19279;DHT22;9773;47.062;15.446;2023-05-16T09:37:48;12.70;99.90
19279;DHT22;9773;47.062;15.446;2023-05-16T09:40:14;12.60;99.90
19279;DHT22;9773;47.062;15.446;2023-05-16T09:42:41;12.70;99.90
19279;DHT22;9773;47.062;15.446;2023-05-16T09:45:12;12.60;99.90
19279;DHT22;9773;47.062;15.446;2023-05-16T09:47:38;12.70;99.90
19279;DHT22;9773;47.062;15.446;2023-05-16T09:50:13;12.70;99.90
19279;DHT22;9773;47.062;15.446;2023-05-16T09:52:39;12.80;99.90
19279;DHT22;9773;47.062;15.446;2023-05-16T09:55:07;12.70;99.90
19279;DHT22;9773;47.062;15.446;2023-05-16T09:57:36;12.70;99.90
19279;DHT22;9773;47.062;15.446;2023-05-16T10:00:05;12.80;99.90
19279;DHT22;9773;47.062;15.446;2023-05-16T10:02:33;12.90;99.90
19279;DHT22;9773;47.062;15.446;2023-05-16T10:04:59;12.80;99.90
19279;DHT22;9773;47.062;15.446;2023-05-16T10:07:26;12.80;99.90
19279;DHT22;9773;47.062;15.446;2023-05-16T10:09:53;12.80;99.90
19279;DHT22;9773;47.062;15.446;2023-05-16T10:12:25;12.80;99.90
19279;DHT22;9773;47.062;15.446;2023-05-16T10:14:52;12.80;99.90
19279;DHT22;9773;47.062;15.446;2023-05-16T10:17:18;12.80;99.90
19279;DHT22;9773;47.062;15.446;2023-05-16T10:19:45;12.80;99.90
19279;DHT22;9773;47.062;15.446;2023-05-16T10:22:12;12.70;99.90
19279;DHT22;9773;47.062;15.446;2023-05-16T10:24:56;12.70;99.90
19279;DHT22;9773;47.062;15.446;2023-05-16T10:27:24;12.70;99.90
19279;DHT22;9773;47.062;15.446;2023-05-16T10:29:51;12.60;99.90
19279;DHT22;9773;47.062;15.446;2023-05-16T10:32:18;12.60;99.90
19279;DHT22;9773;47.062;15.446;2023-05-16T10:34:45;12.60;99.90
19279;DHT22;9773;47.062;15.446;2023-05-16T10:37:11;12.50;99.90
19279;DHT22;9773;47.062;15.446;2023-05-16T10:39:37;12.50;99.90
19279;DHT22;9773;47.062;15.446;2023-05-16T10:42:05;12.40;99.90
19279;DHT22;9773;47.062;15.446;2023-05-16T10:44:31;12.40;99.90
19279;DHT22;9773;47.062;15.446;2023-05-16T10:46:59;12.40;99.90
19279;DHT22;9773;47.062;15.446;2023-05-16T10:49:26;12.50;99.90
19279;DHT22;9773;47.062;15.446;2023-05-16T10:52:03;12.60;99.90
19279;DHT22;9773;47.062;15.446;2023-05-16T10:54:40;12.60;99.90
19279;DHT22;9773;47.062;15.446;2023-05-16T10:57:14;12.70;99.90
19279;DHT22;9773;47.062;15.446;2023-05-16T10:59:46;12.70;99.90
19279;DHT22;9773;47.062;15.446;2023-05-16T11:02:28;12.70;99.90
19279;DHT22;9773;47.062;15.446;2023-05-16T11:04:56;12.70;99.90
19279;DHT22;9773;47.062;15.446;2023-05-16T11:07:25;12.70;99.90
19279;DHT22;9773;47.062;15.446;2023-05-16T11:10:14;12.80;99.90
19279;DHT22;9773;47.062;15.446;2023-05-16T11:12:50;12.70;99.90
19279;DHT22;9773;47.062;15.446;2023-05-16T11:15:27;12.80;99.90
19279;DHT22;9773;47.062;15.446;2023-05-16T11:18:09;12.90;99.90
19279;DHT22;9773;47.062;15.446;2023-05-16T11:20:36;13.00;99.90
19279;DHT22;9773;47.062;15.446;2023-05-16T11:25:48;13.20;99.90
19279;DHT22;9773;47.062;15.446;2023-05-16T11:28:16;13.30;99.90
19279;DHT22;9773;47.062;15.446;2023-05-16T11:30:45;13.30;99.90
19279;DHT22;9773;47.062;15.446;2023-05-16T11:33:11;13.30;99.90
19279;DHT22;9773;47.062;15.446;2023-05-16T11:35:37;13.30;99.90
19279;DHT22;9773;47.062;15.446;2023-05-16T11:38:03;13.20;99.90
19279;DHT22;9773;47.062;15.446;2023-05-16T11:40:29;13.20;99.90
19279;DHT22;9773;47.062;15.446;2023-05-16T11:42:59;13.20;99.90
19279;DHT22;9773;47.062;15.446;2023-05-16T11:45:25;13.00;99.90
19279;DHT22;9773;47.062;15.446;2023-05-16T11:47:51;13.10;99.90
19279;DHT22;9773;47.062;15.446;2023-05-16T11:50:18;13.00;99.90
19279;DHT22;9773;47.062;15.446;2023-05-16T11:52:46;12.90;99.90
19279;DHT22;9773;47.062;15.446;2023-05-16T11:55:13;12.90;99.90
19279;DHT22;9773;47.062;15.446;2023-05-16T11:57:40;12.90;99.90
19279;DHT22;9773;47.062;15.446;2023-05-16T12:00:14;13.00;99.90
19279;DHT22;9773;47.062;15.446;2023-05-16T12:02:41;12.90;99.90
19279;DHT22;9773;47.062;15.446;2023-05-16T12:05:10;13.00;99.90
19279;DHT22;9773;47.062;15.446;2023-05-16T12:07:39;13.00;99.90
19279;DHT22;9773;47.062;15.446;2023-05-16T12:10:10;13.00;99.90
19279;DHT22;9773;47.062;15.446;2023-05-16T12:12:38;13.00;99.90
19279;DHT22;9773;47.062;15.446;2023-05-16T12:15:06;13.00;99.90
19279;DHT22;9773;47.062;15.446;2023-05-16T12:17:39;12.90;99.90
19279;DHT22;9773;47.062;15.446;2023-05-16T12:20:06;12.80;99.90
19279;DHT22;9773;47.062;15.446;2023-05-16T12:22:32;12.90;99.90
19279;DHT22;9773;47.062;15.446;2023-05-16T12:24:59;12.90;99.90
19279;DHT22;9773;47.062;15.446;2023-05-16T12:27:26;12.90;99.90
19279;DHT22;9773;47.062;15.446;2023-05-16T12:29:52;12.90;99.90
19279;DHT22;9773;47.062;15.446;2023-05-16T12:32:21;12.80;99.90
19279;DHT22;9773;47.062;15.446;2023-05-16T12:34:50;12.80;99.90
19279;DHT22;9773;47.062;15.446;2023-05-16T12:37:16;12.80;99.90
19279;DHT22;9773;47.062;15.446;2023-05-16T12:39:42;12.80;99.90
19279;DHT22;9773;47.062;15.446;2023-05-16T12:42:11;12.80;99.90
19279;DHT22;9773;47.062;15.446;2023-05-16T12:44:38;12.80;99.90
19279;DHT22;9773;47.062;15.446;2023-05-16T12:47:11;12.80;99.90
19279;DHT22;9773;47.062;15.446;2023-05-16T12:49:44;12.80;99.90
19279;DHT22;9773;47.062;15.446;2023-05-16T12:52:17;12.90;99.90
19279;DHT22;9773;47.062;15.446;2023-05-16T12:54:44;12.90;99.90
19279;DHT22;9773;47.062;15.446;2023-05-16T12:57:09;12.90;99.90
19279;DHT22;9773;47.062;15.446;2023-05-16T12:59:35;13.00;99.90
19279;DHT22;9773;47.062;15.446;2023-05-16T13:02:02;13.00;99.90
19279;DHT22;9773;47.062;15.446;2023-05-16T13:04:28;13.10;99.90
19279;DHT22;9773;47.062;15.446;2023-05-16T13:06:54;13.30;99.90
19279;DHT22;9773;47.062;15.446;2023-05-16T13:09:20;13.30;99.90
19279;DHT22;9773;47.062;15.446;2023-05-16T13:11:46;13.40;99.90
19279;DHT22;9773;47.062;15.446;2023-05-16T13:14:12;13.30;99.90
19279;DHT22;9773;47.062;15.446;2023-05-16T13:16:38;13.20;99.90
19279;DHT22;9773;47.062;15.446;2023-05-16T13:19:04;13.20;99.90
19279;DHT22;9773;47.062;15.446;2023-05-16T13:21:30;13.40;99.90
19279;DHT22;9773;47.062;15.446;2023-05-16T13:23:57;13.50;99.90
19279;DHT22;9773;47.062;15.446;2023-05-16T13:26:23;13.40;99.90
19279;DHT22;9773;47.062;15.446;2023-05-16T13:28:49;13.30;99.90
19279;DHT22;9773;47.062;15.446;2023-05-16T13:31:18;13.30;99.90
19279;DHT22;9773;47.062;15.446;2023-05-16T13:33:43;13.30;99.90
19279;DHT22;9773;47.062;15.446;2023-05-16T13:36:09;13.20;99.90
19279;DHT22;9773;47.062;15.446;2023-05-16T13:38:35;13.10;99.90
19279;DHT22;9773;47.062;15.446;2023-05-16T13:41:01;13.20;99.90
19279;DHT22;9773;47.062;15.446;2023-05-16T13:43:27;13.20;99.90
19279;DHT22;9773;47.062;15.446;2023-05-16T13:45:53;13.30;99.90
19279;DHT22;9773;47.062;15.446;2023-05-16T13:48:18;13.40;99.90
19279;DHT22;9773;47.062;15.446;2023-05-16T13:50:44;13.30;99.90
19279;DHT22;9773;47.062;15.446;2023-05-16T13:53:11;13.40;99.90
19279;DHT22;9773;47.062;15.446;2023-05-16T13:55:37;13.30;99.90
19279;DHT22;9773;47.062;15.446;2023-05-16T13:58:02;13.30;99.90
19279;DHT22;9773;47.062;15.446;2023-05-16T14:00:28;13.20;99.90
19279;DHT22;9773;47.062;15.446;2023-05-16T14:02:55;13.30;99.90
19279;DHT22;9773;47.062;15.446;2023-05-16T14:05:21;13.20;99.90
19279;DHT22;9773;47.062;15.446;2023-05-16T14:07:47;13.20;99.90
19279;DHT22;9773;47.062;15.446;2023-05-16T14:10:13;13.10;99.90
19279;DHT22;9773;47.062;15.446;2023-05-16T14:12:39;13.10;99.90
19279;DHT22;9773;47.062;15.446;2023-05-16T14:15:05;13.10;99.90
19279;DHT22;9773;47.062;15.446;2023-05-16T14:17:31;13.10;99.90
19279;DHT22;9773;47.062;15.446;2023-05-16T14:19:57;13.10;99.90
19279;DHT22;9773;47.062;15.446;2023-05-16T14:22:23;13.10;99.90
19279;DHT22;9773;47.062;15.446;2023-05-16T14:24:49;13.00;99.90
19279;DHT22;9773;47.062;15.446;2023-05-16T14:27:15;13.10;99.90
19279;DHT22;9773;47.062;15.446;2023-05-16T14:29:41;13.00;99.90
19279;DHT22;9773;47.062;15.446;2023-05-16T14:32:09;13.10;99.90
19279;DHT22;9773;47.062;15.446;2023-05-16T14:34:36;13.10;99.90
19279;DHT22;9773;47.062;15.446;2023-05-16T14:37:02;13.10;99.90
19279;DHT22;9773;47.062;15.446;2023-05-16T14:39:27;13.00;99.90
19279;DHT22;9773;47.062;15.446;2023-05-16T14:41:53;12.80;99.90
19279;DHT22;9773;47.062;15.446;2023-05-16T14:44:19;12.80;99.90
19279;DHT22;9773;47.062;15.446;2023-05-16T14:46:46;12.70;99.90
19279;DHT22;9773;47.062;15.446;2023-05-16T14:49:12;12.70;99.90
19279;DHT22;9773;47.062;15.446;2023-05-16T14:51:37;12.70;99.90
19279;DHT22;9773;47.062;15.446;2023-05-16T14:54:03;12.70;99.90
19279;DHT22;9773;47.062;15.446;2023-05-16T14:56:30;12.70;99.90
19279;DHT22;9773;47.062;15.446;2023-05-16T14:58:56;12.70;99.90
19279;DHT22;9773;47.062;15.446;2023-05-16T15:01:22;12.70;99.90
19279;DHT22;9773;47.062;15.446;2023-05-16T15:03:48;12.70;99.90
19279;DHT22;9773;47.062;15.446;2023-05-16T15:06:14;12.70;99.90
19279;DHT22;9773;47.062;15.446;2023-05-16T15:08:39;12.60;99.90
19279;DHT22;9773;47.062;15.446;2023-05-16T15:11:05;12.50;99.90
19279;DHT22;9773;47.062;15.446;2023-05-16T15:13:31;12.50;99.90
19279;DHT22;9773;47.062;15.446;2023-05-16T15:15:57;12.50;99.90
19279;DHT22;9773;47.062;15.446;2023-05-16T15:18:23;12.50;99.90
19279;DHT22;9773;47.062;15.446;2023-05-16T15:20:49;12.50;99.90
19279;DHT22;9773;47.062;15.446;2023-05-16T15:23:16;12.40;99.90
19279;DHT22;9773;47.062;15.446;2023-05-16T15:25:42;12.40;99.90
19279;DHT22;9773;47.062;15.446;2023-05-16T15:28:08;12.00;99.90
19279;DHT22;9773;47.062;15.446;2023-05-16T15:30:34;12.20;99.90
19279;DHT22;9773;47.062;15.446;2023-05-16T15:33:00;12.10;99.90
19279;DHT22;9773;47.062;15.446;2023-05-16T15:35:25;12.10;99.90
19279;DHT22;9773;47.062;15.446;2023-05-16T15:37:51;12.00;99.90
19279;DHT22;9773;47.062;15.446;2023-05-16T15:40:17;12.00;99.90
19279;DHT22;9773;47.062;15.446;2023-05-16T15:42:43;12.00;99.90
19279;DHT22;9773;47.062;15.446;2023-05-16T15:45:10;12.00;99.90
19279;DHT22;9773;47.062;15.446;2023-05-16T15:47:36;12.00;99.90